Boulder, Utah
Current Conditions -  °F | °C
As of 4:53 PM on Tuesday 25 Nov 2014 (Local Time) from KBCE Reporting Station
Clear Clear  
Wind Chill: 33°   Ceiling: Unl
Heat Index: 41°   Visibility: 10mi
Dew Point: 20°   Wind: 14mph
Humidity: 43%   Direction: 310°NW
Pressure: 30.37"   Gusts: NA
Location:  37.93°N, 111.43°W
Report Text: KBCE 252353Z AUTO 31012KT 10SM CLR 05/M07 A3037 RMK AO2 SLP262 T00501067 10072 20050 51003
Loading
Personal Weather Stations






























Interactive Weather Map New forecast layout! Learn more

10-Day Weather Forecast

Advertisements
Track Severe Weather on mobile